Time;durP1;ratioP1;P1;durP2;ratioP2;P2;SDS_P1;SDS_P2;PMS_P1;PMS_P2;Temp;Humidity;BMP_temperature;BMP_pressure;BME280_temperature;BME280_humidity;BME280_pressure;Samples;Min_cycle;Max_cycle;Signal;HPM_P1;HPM_P2
2023/01/14 00:00:54;;;;;;;6.30;1.02;;;;;;;11.51;53.10;100718.91;4931848;28;96946;-72
2023/01/14 00:03:20;;;;;;;9.27;1.33;;;;;;;11.36;53.69;100710.72;4927012;28;97276;-73
2023/01/14 00:05:55;;;;;;;7.40;1.70;;;;;;;11.20;54.40;100723.69;4926623;28;99905;-71
2023/01/14 00:08:21;;;;;;;7.43;1.13;;;;;;;11.34;54.10;100731.09;4925592;28;98986;-72
2023/01/14 00:10:48;;;;;;;4.53;0.85;;;;;;;11.46;53.75;100722.66;4929694;28;97221;-72
2023/01/14 00:13:14;;;;;;;3.53;1.17;;;;;;;11.41;53.73;100730.78;4937280;28;96824;-72
2023/01/14 00:15:49;;;;;;;5.20;0.93;;;;;;;11.62;53.16;100742.28;4930379;28;99209;-72
2023/01/14 00:18:17;;;;;;;7.38;1.45;;;;;;;11.67;53.15;100743.00;4932272;28;99497;-70
2023/01/14 00:20:44;;;;;;;5.57;1.10;;;;;;;11.74;53.31;100735.72;4933671;28;97701;-72
2023/01/14 00:23:10;;;;;;;6.57;1.20;;;;;;;11.69;53.37;100742.91;4933678;28;96860;-70
2023/01/14 00:25:38;;;;;;;8.32;1.60;;;;;;;11.90;52.94;100740.31;4931007;28;98899;-71
2023/01/14 00:28:05;;;;;;;5.05;0.93;;;;;;;12.07;52.20;100755.50;4932645;28;98874;-72
2023/01/14 00:30:32;;;;;;;5.88;0.95;;;;;;;12.08;52.10;100746.63;4937581;28;97100;-72
2023/01/14 00:32:58;;;;;;;8.70;1.40;;;;;;;12.23;51.84;100745.97;4927955;28;97584;-71
2023/01/14 00:35:26;;;;;;;8.10;1.30;;;;;;;12.21;51.77;100750.47;4936998;28;99073;-71
2023/01/14 00:37:52;;;;;;;6.32;1.23;;;;;;;12.16;51.87;100759.53;4933379;28;98982;-72
2023/01/14 00:40:19;;;;;;;5.47;1.10;;;;;;;12.24;51.70;100762.75;4937207;28;96747;-72
2023/01/14 00:42:45;;;;;;;9.50;1.45;;;;;;;12.11;52.10;100766.81;4930603;28;96808;-72
2023/01/14 00:45:11;;;;;;;4.93;0.70;;;;;;;12.17;52.09;100762.13;4931773;28;99361;-71
2023/01/14 00:47:38;;;;;;;4.80;0.80;;;;;;;12.15;51.85;100766.63;4934620;28;99327;-71
2023/01/14 00:50:05;;;;;;;6.35;1.20;;;;;;;11.96;52.51;100776.25;4933560;28;96776;-71
2023/01/14 00:52:32;;;;;;;6.25;1.10;;;;;;;12.21;51.85;100779.63;4932430;28;96992;-70
2023/01/14 00:54:59;;;;;;;5.68;1.05;;;;;;;12.15;52.15;100784.31;4933474;28;99650;-71
2023/01/14 00:57:26;;;;;;;4.15;0.90;;;;;;;12.19;51.83;100786.78;4935625;28;98764;-71
2023/01/14 00:59:52;;;;;;;5.30;0.90;;;;;;;12.04;52.28;100782.09;4939919;28;96908;-72
2023/01/14 01:02:18;;;;;;;4.53;0.75;;;;;;;11.99;52.49;100794.69;4937257;28;97266;-72
2023/01/14 01:04:45;;;;;;;6.78;1.17;;;;;;;11.97;52.66;100788.56;4926862;28;98937;-72
2023/01/14 01:07:11;;;;;;;5.60;0.88;;;;;;;11.77;53.39;100796.44;4933461;28;99514;-72
2023/01/14 01:09:39;;;;;;;7.90;1.17;;;;;;;11.80;53.36;100799.00;4935047;28;97312;-71
2023/01/14 01:12:06;;;;;;;6.10;1.00;;;;;;;11.83;53.34;100801.50;4934580;28;96760;-70
2023/01/14 01:14:32;;;;;;;4.55;0.88;;;;;;;11.91;53.17;100802.06;4924391;28;99275;-71
2023/01/14 01:16:59;;;;;;;5.95;1.02;;;;;;;11.47;54.66;100798.50;4933027;28;99682;-72
2023/01/14 01:19:25;;;;;;;6.32;1.00;;;;;;;11.51;54.72;100794.78;4937711;28;96764;-72
2023/01/14 01:21:52;;;;;;;7.10;1.10;;;;;;;11.92;53.79;100801.16;4932067;28;97110;-71
2023/01/14 01:24:18;;;;;;;4.68;0.98;;;;;;;11.93;53.70;100802.88;4930427;28;98857;-72
2023/01/14 01:26:47;;;;;;;4.50;1.30;;;;;;;11.92;53.74;100809.09;4942637;28;100952;-72
2023/01/14 01:29:14;;;;;;;5.03;1.10;;;;;;;11.76;54.12;100811.47;4938676;28;96804;-72
2023/01/14 01:31:40;;;;;;;5.70;1.00;;;;;;;11.84;54.23;100805.88;4936581;28;96758;-72
2023/01/14 01:34:07;;;;;;;6.97;1.30;;;;;;;11.57;54.82;100797.19;4933559;28;97599;-71
2023/01/14 01:36:33;;;;;;;8.30;1.17;;;;;;;11.62;54.77;100812.91;4931561;28;98819;-71
2023/01/14 01:39:00;;;;;;;5.25;1.40;;;;;;;11.51;54.91;100795.66;4933067;28;96699;-70
2023/01/14 01:41:28;;;;;;;4.75;0.90;;;;;;;11.34;55.62;100816.63;4925756;28;96862;-71
2023/01/14 01:44:02;;;;;;;7.72;1.27;;;;;;;11.21;56.87;100828.56;4936482;28;99912;-70
2023/01/14 01:46:29;;;;;;;7.18;1.50;;;;;;;11.27;57.00;100817.75;4932321;28;99364;-71
2023/01/14 01:48:57;;;;;;;8.00;1.25;;;;;;;11.39;56.39;100819.06;4932707;28;96885;-71
2023/01/14 01:51:29;;;;;;;8.65;1.90;;;;;;;11.46;56.51;100821.44;4931362;28;97242;-70
2023/01/14 01:53:58;;;;;;;4.45;1.00;;;;;;;11.71;56.13;100820.50;4928260;28;99086;-73
2023/01/14 01:56:28;;;;;;;4.63;1.10;;;;;;;11.83;56.00;100830.63;4927186;28;99059;-70
2023/01/14 01:58:57;;;;;;;7.35;1.40;;;;;;;11.95;55.71;100835.44;4931407;28;96822;-70
2023/01/14 02:01:25;;;;;;;5.00;1.02;;;;;;;11.80;55.68;100834.28;4929171;28;97253;-71
2023/01/14 02:03:53;;;;;;;5.68;1.35;;;;;;;11.78;55.84;100835.25;4929361;28;98908;-71
2023/01/14 02:06:19;;;;;;;9.85;1.40;;;;;;;11.71;55.74;100834.59;4929615;28;98834;-71
2023/01/14 02:08:49;;;;;;;6.43;1.20;;;;;;;11.61;55.95;100835.00;4935457;28;97320;-72
2023/01/14 02:11:35;;;;;;;4.63;1.23;;;;;;;11.79;55.12;100840.50;4938763;28;96879;-71
2023/01/14 02:14:10;;;;;;;9.25;1.10;;;;;;;11.44;56.40;100847.09;4935527;28;99597;-71
2023/01/14 02:16:51;;;;;;;5.30;1.10;;;;;;;11.30;56.20;100846.72;4934163;28;98937;-71
2023/01/14 02:19:35;;;;;;;6.22;1.27;;;;;;;11.39;56.57;100856.97;4928766;28;97341;-71
2023/01/14 02:22:21;;;;;;;5.68;1.10;;;;;;;11.53;56.38;100864.41;4941165;28;97381;-71
2023/01/14 02:25:04;;;;;;;4.93;1.02;;;;;;;11.47;55.94;100864.63;4932966;28;98913;-71
2023/01/14 02:27:53;;;;;;;5.82;1.13;;;;;;;11.62;56.22;100866.69;4932058;28;99874;-72
2023/01/14 02:30:40;;;;;;;3.30;1.00;;;;;;;11.82;56.96;100873.91;4941474;28;96839;-71
2023/01/14 02:33:21;;;;;;;5.07;0.90;;;;;;;11.65;57.51;100878.97;4930506;28;96880;-71
2023/01/14 02:35:53;;;;;;;7.68;1.10;;;;;;;11.41;58.64;100878.09;4930817;28;99587;-73
2023/01/14 02:38:27;;;;;;;5.28;1.10;;;;;;;11.62;58.21;100879.09;4935366;28;98964;-70
2023/01/14 02:41:01;;;;;;;6.60;1.10;;;;;;;11.58;58.39;100895.06;4924927;28;96873;-71
2023/01/14 02:46:26;;;;;;;6.45;1.27;;;;;;;11.17;61.96;100899.22;4927719;28;97289;-72
2023/01/14 02:48:55;;;;;;;5.45;1.75;;;;;;;11.39;62.37;100894.03;4929455;28;101932;-72
2023/01/14 02:51:22;;;;;;;7.07;1.95;;;;;;;11.31;62.43;100895.22;4929053;28;97414;-72
2023/01/14 02:53:48;;;;;;;7.20;1.40;;;;;;;11.64;61.98;100898.41;4933656;28;97454;-72
2023/01/14 02:56:15;;;;;;;8.88;1.30;;;;;;;11.75;61.15;100897.09;4926761;28;98126;-73
2023/01/14 02:59:20;;;;;;;6.03;1.17;;;;;;;11.83;60.86;100902.09;4931762;28;99526;-73
2023/01/14 03:02:10;;;;;;;5.78;1.38;;;;;;;12.13;60.71;100898.28;4914058;28;96945;-72
2023/01/14 03:04:49;;;;;;;5.88;1.05;;;;;;;12.23;60.47;100901.41;4930039;28;96766;-71
2023/01/14 03:07:23;;;;;;;5.53;1.45;;;;;;;12.28;59.82;100905.63;4925231;28;99038;-72
2023/01/14 03:10:02;;;;;;;4.60;1.40;;;;;;;12.37;59.49;100897.31;4929124;28;97673;-72
2023/01/14 03:12:40;;;;;;;5.70;1.00;;;;;;;12.20;58.28;100910.38;4925768;28;97185;-74
2023/01/14 03:15:15;;;;;;;4.07;1.00;;;;;;;11.76;59.32;100916.50;4927647;28;97265;-72
2023/01/14 03:17:46;;;;;;;5.32;1.02;;;;;;;11.99;59.43;100921.81;4930143;28;101519;-72
2023/01/14 03:20:17;;;;;;;5.80;2.03;;;;;;;11.83;59.80;100928.59;4928175;28;99053;-71
2023/01/14 03:22:45;;;;;;;8.95;1.25;;;;;;;12.26;58.92;100933.09;4924170;28;97084;-72
2023/01/14 03:25:16;;;;;;;2.42;1.15;;;;;;;12.43;58.84;100929.78;4923902;28;96955;-72
2023/01/14 03:27:45;;;;;;;6.15;1.38;;;;;;;12.11;59.90;100939.00;4928466;28;99285;-71
2023/01/14 03:30:15;;;;;;;6.70;1.40;;;;;;;11.57;61.08;100937.47;4932397;28;98913;-72
2023/01/14 03:32:46;;;;;;;10.07;1.75;;;;;;;11.10;61.67;100936.50;4940807;28;97025;-72
2023/01/14 03:35:15;;;;;;;6.95;0.93;;;;;;;11.30;62.44;100941.09;4933444;28;97073;-71
2023/01/14 03:37:48;;;;;;;4.35;1.10;;;;;;;11.50;60.91;100938.59;4929429;28;98941;-71
2023/01/14 03:40:17;;;;;;;4.00;0.90;;;;;;;11.62;60.39;100930.22;4927093;28;97679;-72
2023/01/14 03:42:48;;;;;;;4.18;1.05;;;;;;;11.48;59.86;100936.03;4921565;28;97211;-72
2023/01/14 03:45:21;;;;;;;3.40;0.80;;;;;;;11.45;59.79;100924.69;4929748;28;97301;-73
2023/01/14 03:47:49;;;;;;;6.95;1.30;;;;;;;11.57;59.25;100926.88;4928528;28;100184;-73
2023/01/14 03:50:18;;;;;;;6.75;0.80;;;;;;;11.57;59.48;100933.03;4927764;28;98831;-71
2023/01/14 03:53:02;;;;;;;4.55;1.00;;;;;;;11.85;58.61;100932.91;4916563;28;97817;-70
2023/01/14 03:55:37;;;;;;;8.65;1.00;;;;;;;11.51;58.03;100935.91;4932490;28;96758;-71
2023/01/14 03:58:09;;;;;;;6.25;1.00;;;;;;;11.45;58.81;100946.72;4927482;28;97805;-71
2023/01/14 04:00:44;;;;;;;10.85;1.20;;;;;;;11.70;57.97;100945.81;4926995;28;98836;-71
2023/01/14 04:03:14;;;;;;;3.65;0.75;;;;;;;11.71;58.61;100950.19;4928186;28;96673;-71
2023/01/14 04:05:41;;;;;;;7.30;1.13;;;;;;;11.89;57.40;100939.81;4938687;28;96783;-72
2023/01/14 04:08:09;;;;;;;8.40;1.13;;;;;;;11.66;58.56;100952.16;4939885;28;98845;-72
2023/01/14 04:10:35;;;;;;;7.57;1.30;;;;;;;11.41;58.79;100946.88;4931285;28;98852;-72
2023/01/14 04:15:45;;;;;;;10.80;1.88;;;;;;;11.56;58.67;100949.81;4937499;28;96767;-70
2023/01/14 04:18:13;;;;;;;5.15;1.23;;;;;;;11.59;58.46;100962.09;4934694;28;102216;-71
2023/01/14 04:20:40;;;;;;;9.25;1.13;;;;;;;11.63;58.56;100955.75;4928944;28;98876;-71
2023/01/14 04:23:06;;;;;;;8.40;1.38;;;;;;;11.45;58.83;100962.59;4936691;28;96691;-72
2023/01/14 04:25:32;;;;;;;5.28;0.90;;;;;;;11.56;58.64;100964.84;4934101;28;96929;-71
2023/01/14 04:27:58;;;;;;;7.13;1.50;;;;;;;11.75;57.93;100959.81;4929689;28;98002;-71
2023/01/14 04:30:25;;;;;;;6.32;1.15;;;;;;;11.80;57.24;100963.13;4929725;28;96832;-71
2023/01/14 04:32:51;;;;;;;6.03;0.90;;;;;;;12.00;57.24;100963.25;4933142;28;97183;-72
2023/01/14 04:35:19;;;;;;;8.75;1.30;;;;;;;11.78;57.47;100965.84;4923329;28;96836;-71
2023/01/14 04:37:45;;;;;;;4.93;1.25;;;;;;;11.89;57.17;100970.72;4929706;28;98032;-71
2023/01/14 04:40:12;;;;;;;6.03;0.90;;;;;;;11.71;57.35;100966.06;4924487;28;99325;-71
2023/01/14 04:42:39;;;;;;;5.18;1.10;;;;;;;11.71;57.34;100963.44;4929950;28;97118;-71
2023/01/14 04:45:06;;;;;;;8.23;1.23;;;;;;;11.46;57.57;100969.63;4926959;28;98237;-71
2023/01/14 04:47:32;;;;;;;5.85;1.10;;;;;;;11.78;56.99;100960.53;4930872;28;99219;-72
2023/01/14 04:50:30;;;;;;;6.70;0.90;;;;;;;11.67;57.19;100962.69;4931518;28;101198;-71
2023/01/14 04:52:46;;;;;;;8.43;1.65;;;;;;;11.77;56.58;100965.88;4930150;28;98361;-72
2023/01/14 04:55:13;;;;;;;4.38;1.05;;;;;;;11.61;56.69;100972.63;4935012;28;97280;-72
2023/01/14 04:57:39;;;;;;;7.05;0.90;;;;;;;11.80;56.36;100979.03;4936571;28;98524;-71
2023/01/14 05:00:07;;;;;;;6.05;1.00;;;;;;;11.86;55.90;100984.97;4933285;28;99116;-70
2023/01/14 05:02:34;;;;;;;10.00;1.45;;;;;;;11.71;56.66;100981.97;4935457;28;97271;-71
2023/01/14 05:05:00;;;;;;;5.25;1.00;;;;;;;11.76;56.31;100993.28;4936287;28;96768;-71
2023/01/14 05:07:26;;;;;;;5.18;0.90;;;;;;;11.89;55.78;100989.25;4929555;28;98940;-71
2023/01/14 05:09:54;;;;;;;4.55;0.88;;;;;;;12.08;55.30;100994.75;4933331;28;98606;-71
2023/01/14 05:12:20;;;;;;;9.20;1.10;;;;;;;12.08;55.09;100994.75;4941488;28;96844;-71
2023/01/14 05:14:47;;;;;;;7.28;1.10;;;;;;;11.70;56.05;100993.47;4931692;28;96876;-71
2023/01/14 05:17:13;;;;;;;8.10;1.55;;;;;;;11.79;55.79;101001.97;4932614;28;99211;-71
2023/01/14 05:19:40;;;;;;;8.20;1.17;;;;;;;11.78;55.46;100992.31;4931825;28;97525;-71
2023/01/14 05:22:06;;;;;;;5.38;1.15;;;;;;;12.10;54.93;100993.75;4923676;28;96898;-72
2023/01/14 05:24:32;;;;;;;6.22;1.05;;;;;;;12.01;55.03;101004.72;4938138;28;96980;-71
2023/01/14 05:27:00;;;;;;;4.82;0.82;;;;;;;11.90;54.91;101004.22;4928563;28;99065;-72
2023/01/14 05:29:26;;;;;;;6.32;1.27;;;;;;;11.70;55.19;101007.56;4932543;28;97823;-72
2023/01/14 05:31:53;;;;;;;10.98;1.50;;;;;;;11.70;55.85;101004.06;4936285;28;97147;-72
2023/01/14 05:34:19;;;;;;;4.00;1.02;;;;;;;11.80;55.22;101005.50;4926845;28;97595;-72
2023/01/14 05:36:45;;;;;;;3.05;0.85;;;;;;;11.87;55.21;101014.94;4935970;28;99381;-72
2023/01/14 05:39:12;;;;;;;9.48;1.40;;;;;;;11.85;55.22;101014.13;4933896;28;98226;-72
2023/01/14 05:45:37;;;;;;;4.75;1.67;;;;;;;11.81;54.79;101018.69;4937304;28;96625;-72
2023/01/14 05:47:10;;;;;;;9.70;1.52;;;;;;;11.77;55.10;101014.41;4932731;28;97751;-71
2023/01/14 05:49:36;;;;;;;6.78;0.90;;;;;;;11.91;54.57;101021.84;4932104;28;100847;-72
2023/01/14 05:52:02;;;;;;;2.83;0.88;;;;;;;11.83;54.22;101011.53;4936499;28;97164;-72
2023/01/14 05:54:29;;;;;;;10.38;1.67;;;;;;;11.96;54.36;101010.16;4932553;28;96828;-72
2023/01/14 05:56:55;;;;;;;5.43;1.15;;;;;;;11.82;54.16;101015.09;4931025;28;98822;-72
2023/01/14 05:59:22;;;;;;;8.70;1.65;;;;;;;11.74;54.73;101027.75;4928054;28;99115;-71
2023/01/14 06:07:18;;;;;;;5.82;1.10;;;;;;;11.97;53.64;101040.16;4926473;28;97324;-72
2023/01/14 06:09:44;;;;;;;4.30;0.80;;;;;;;12.01;53.53;101036.50;4930628;28;98947;-72
2023/01/14 06:12:31;;;;;;;9.20;1.63;;;;;;;12.13;53.37;101030.75;4935613;28;97319;-72
2023/01/14 06:14:57;;;;;;;7.43;1.33;;;;;;;12.30;52.82;101038.91;4925293;28;97318;-71
2023/01/14 06:17:34;;;;;;;6.00;1.02;;;;;;;12.09;53.25;101030.88;4924805;28;101069;-72
2023/01/14 06:20:00;;;;;;;7.22;1.30;;;;;;;12.23;53.17;101045.34;4920057;28;98878;-72
2023/01/14 06:22:26;;;;;;;8.55;0.93;;;;;;;12.21;53.03;101044.53;4933555;28;97223;-72
2023/01/14 06:24:53;;;;;;;10.55;1.10;;;;;;;12.04;53.25;101046.97;4937819;28;97194;-72
2023/01/14 06:27:20;;;;;;;8.93;1.40;;;;;;;12.00;53.50;101055.09;4932732;28;98997;-72
2023/01/14 06:29:46;;;;;;;5.85;1.05;;;;;;;12.05;53.37;101059.28;4934646;28;101891;-72
2023/01/14 06:32:13;;;;;;;7.22;0.82;;;;;;;12.12;53.42;101060.78;4940851;28;96995;-72
2023/01/14 06:34:40;;;;;;;11.20;1.35;;;;;;;12.02;53.34;101062.03;4925330;28;96919;-72
2023/01/14 06:37:07;;;;;;;4.90;0.88;;;;;;;12.10;53.63;101054.69;4937135;28;99252;-72
2023/01/14 06:39:33;;;;;;;8.90;1.40;;;;;;;12.21;53.47;101049.84;4931336;28;99210;-72
2023/01/14 06:41:59;;;;;;;6.20;1.10;;;;;;;12.17;53.81;101058.84;4926655;28;96807;-72
2023/01/14 06:44:27;;;;;;;3.85;1.10;;;;;;;11.85;54.62;101057.38;4929998;28;97256;-71
2023/01/14 06:46:54;;;;;;;8.85;1.25;;;;;;;11.63;55.56;101052.84;4934982;28;98767;-71
2023/01/14 06:49:20;;;;;;;5.80;1.17;;;;;;;11.73;55.65;101047.19;4930988;28;98852;-71
2023/01/14 06:51:48;;;;;;;7.00;1.05;;;;;;;11.73;55.97;101055.13;4931206;28;96801;-72
2023/01/14 06:54:15;;;;;;;11.50;1.10;;;;;;;11.59;56.78;101052.09;4931098;28;96799;-71
2023/01/14 06:56:42;;;;;;;5.00;1.00;;;;;;;11.61;56.74;101052.03;4924373;28;99242;-73
2023/01/14 06:59:09;;;;;;;5.65;1.00;;;;;;;11.47;57.65;101047.22;4930622;28;99253;-73
2023/01/14 07:01:35;;;;;;;4.93;1.02;;;;;;;11.77;56.46;101055.91;4935712;28;96719;-72
2023/01/14 07:04:02;;;;;;;4.47;1.00;;;;;;;11.77;56.57;101067.34;4931955;28;96766;-72
2023/01/14 07:06:28;;;;;;;4.13;0.85;;;;;;;11.74;56.78;101064.84;4935973;28;99405;-72
2023/01/14 07:08:56;;;;;;;5.50;0.93;;;;;;;11.68;56.98;101064.16;4931408;28;99144;-72
2023/01/14 07:11:22;;;;;;;9.32;1.13;;;;;;;11.86;56.55;101068.81;4935903;28;97819;-72
2023/01/14 07:13:49;;;;;;;7.78;1.20;;;;;;;11.97;56.33;101070.16;4933167;28;97299;-72
2023/01/14 07:16:15;;;;;;;6.40;0.90;;;;;;;12.10;55.96;101061.75;4933757;28;99043;-72
2023/01/14 07:18:41;;;;;;;5.13;1.10;;;;;;;11.87;56.61;101071.41;4929681;28;99471;-71
2023/01/14 07:21:08;;;;;;;5.93;0.93;;;;;;;11.85;57.05;101069.72;4927608;28;97316;-72
2023/01/14 07:23:34;;;;;;;4.95;1.17;;;;;;;11.82;57.51;101078.63;4927662;28;97189;-71
2023/01/14 07:26:02;;;;;;;5.35;1.20;;;;;;;11.80;57.60;101071.69;4928234;28;98780;-72
2023/01/14 07:28:29;;;;;;;6.97;1.13;;;;;;;11.62;58.35;101074.94;4932159;28;99062;-72
2023/01/14 07:30:56;;;;;;;4.70;0.93;;;;;;;11.71;58.46;101070.19;4933359;28;96813;-71
2023/01/14 07:33:23;;;;;;;6.20;1.20;;;;;;;11.68;58.22;101069.44;4928890;28;97192;-72
2023/01/14 07:35:51;;;;;;;7.22;1.38;;;;;;;11.63;58.79;101066.06;4933539;28;98898;-72
2023/01/14 07:38:21;;;;;;;8.98;1.02;;;;;;;11.56;59.10;101062.75;4932595;28;98873;-72
2023/01/14 07:40:47;;;;;;;9.82;1.58;;;;;;;11.64;59.34;101062.50;4930339;28;96759;-72
2023/01/14 07:43:15;;;;;;;8.77;1.33;;;;;;;11.88;58.74;101064.34;4929472;28;97021;-71
2023/01/14 07:45:42;;;;;;;6.72;1.13;;;;;;;11.72;59.10;101065.75;4940482;28;100601;-71
2023/01/14 07:48:08;;;;;;;6.10;1.05;;;;;;;11.77;59.21;101058.53;4937936;28;97688;-71
2023/01/14 07:50:35;;;;;;;5.25;1.23;;;;;;;11.83;58.73;101063.63;4944417;28;96778;-72
2023/01/14 07:53:01;;;;;;;3.92;1.10;;;;;;;11.85;58.71;101061.78;4934425;28;97950;-72
2023/01/14 07:55:28;;;;;;;10.15;1.40;;;;;;;11.87;58.39;101052.88;4934174;28;99096;-73
2023/01/14 07:57:55;;;;;;;9.20;1.52;;;;;;;12.03;58.22;101055.81;4937039;28;97892;-72
2023/01/14 08:00:23;;;;;;;5.75;1.05;;;;;;;11.70;58.45;101057.00;4940235;28;96773;-72
2023/01/14 08:02:50;;;;;;;13.45;1.40;;;;;;;11.85;58.30;101056.50;4936216;28;97247;-72
2023/01/14 08:05:16;;;;;;;7.32;1.70;;;;;;;11.94;58.01;101069.41;4935318;28;98924;-72
2023/01/14 08:07:43;;;;;;;6.25;1.25;;;;;;;12.15;57.73;101060.66;4936333;28;99034;-72
2023/01/14 08:10:11;;;;;;;6.28;1.60;;;;;;;12.15;57.04;101060.66;4935052;28;96809;-71
2023/01/14 08:12:38;;;;;;;5.90;1.67;;;;;;;12.14;56.93;101061.59;4925778;28;97397;-71
2023/01/14 08:15:06;;;;;;;7.68;1.60;;;;;;;12.13;56.88;101059.00;4934366;28;98957;-73
2023/01/14 08:17:34;;;;;;;9.27;1.40;;;;;;;12.21;56.68;101060.44;4936077;28;97781;-72
2023/01/14 08:20:01;;;;;;;6.40;1.88;;;;;;;12.11;56.50;101059.06;4934786;28;96723;-73
2023/01/14 08:22:29;;;;;;;3.63;1.05;;;;;;;12.10;56.97;101056.47;4926223;28;97223;-72
2023/01/14 08:24:55;;;;;;;9.07;1.70;;;;;;;12.03;56.24;101058.47;4937001;28;102572;-72
2023/01/14 08:27:22;;;;;;;5.03;1.17;;;;;;;11.99;56.43;101043.63;4930745;28;98997;-72
2023/01/14 08:29:48;;;;;;;7.10;1.73;;;;;;;11.95;56.64;101045.50;4937257;28;97657;-74
2023/01/14 08:32:15;;;;;;;7.28;1.33;;;;;;;12.16;55.77;101043.84;4933642;28;97149;-73
2023/01/14 08:34:43;;;;;;;4.70;0.98;;;;;;;12.04;55.78;101046.09;4922044;28;100864;-72
2023/01/14 08:37:09;;;;;;;10.50;1.30;;;;;;;11.98;55.77;101048.06;4923802;28;99331;-72
2023/01/14 08:39:36;;;;;;;6.32;0.95;;;;;;;11.98;55.64;101047.19;4918736;28;97768;-74
2023/01/14 08:42:04;;;;;;;7.00;1.70;;;;;;;12.13;55.35;101045.78;4924993;28;97247;-72
2023/01/14 08:44:34;;;;;;;8.45;1.75;;;;;;;12.25;55.22;101046.19;4926172;28;98602;-71
2023/01/14 08:47:01;;;;;;;3.20;0.90;;;;;;;12.35;54.65;101052.84;4932788;28;99194;-72
2023/01/14 08:49:28;;;;;;;6.35;1.30;;;;;;;12.25;54.78;101054.13;4933006;28;97024;-73
2023/01/14 08:51:59;;;;;;;5.97;1.05;;;;;;;12.30;54.31;101051.28;4922117;28;97608;-73
2023/01/14 08:54:25;;;;;;;6.65;1.48;;;;;;;12.04;54.96;101052.25;4928906;28;100516;-72
2023/01/14 08:56:54;;;;;;;6.15;1.58;;;;;;;12.38;54.07;101062.47;4927105;28;99246;-70
2023/01/14 08:59:25;;;;;;;9.68;1.10;;;;;;;12.41;53.76;101061.47;4934170;28;97156;-73
2023/01/14 09:01:52;;;;;;;6.47;1.50;;;;;;;12.46;53.69;101047.16;4926766;28;97384;-72
2023/01/14 09:04:18;;;;;;;6.25;1.20;;;;;;;12.60;52.98;101052.75;4935109;28;99027;-71
2023/01/14 09:17:45;;;;;;;6.32;1.60;;;;;;;12.69;52.14;101065.66;4934514;28;96749;-72
2023/01/14 09:20:14;;;;;;;6.60;1.20;;;;;;;12.93;51.28;101061.16;4937800;28;96825;-72
2023/01/14 09:22:41;;;;;;;7.43;0.80;;;;;;;12.81;50.96;101056.34;4934055;28;96865;-73
2023/01/14 09:25:09;;;;;;;4.53;1.08;;;;;;;12.88;50.75;101054.31;4926894;28;100061;-72
2023/01/14 09:27:36;;;;;;;5.97;1.10;;;;;;;12.87;50.74;101053.47;4936108;28;99124;-73
2023/01/14 09:30:02;;;;;;;7.35;1.10;;;;;;;12.90;50.32;101053.34;4928440;28;98006;-74
2023/01/14 09:32:29;;;;;;;6.63;1.60;;;;;;;13.06;50.21;101054.44;4930616;28;97517;-72
2023/01/14 09:34:56;;;;;;;5.63;1.15;;;;;;;12.89;49.90;101056.91;4932715;28;98823;-74
2023/01/14 09:37:24;;;;;;;8.13;1.20;;;;;;;13.15;49.68;101046.16;4928097;28;100526;-72
2023/01/14 09:39:51;;;;;;;6.35;1.40;;;;;;;13.41;48.91;101052.16;4926037;28;96853;-72
2023/01/14 09:42:27;;;;;;;6.63;1.25;;;;;;;13.36;49.23;101054.16;4931005;28;97244;-73
2023/01/14 09:45:01;;;;;;;10.30;1.30;;;;;;;13.34;48.31;101050.69;4933336;28;99145;-72
2023/01/14 09:47:28;;;;;;;10.82;1.35;;;;;;;13.39;48.57;101044.25;4932646;28;99155;-74
2023/01/14 09:49:54;;;;;;;4.20;1.13;;;;;;;13.11;48.49;101033.91;4926964;28;96794;-73
2023/01/14 09:52:45;;;;;;;8.63;1.35;;;;;;;13.11;48.64;101023.31;4933138;28;96860;-73
2023/01/14 09:55:18;;;;;;;6.57;1.40;;;;;;;13.33;48.00;101022.41;4928801;28;101050;-72
2023/01/14 09:57:53;;;;;;;8.82;1.35;;;;;;;13.60;47.39;101015.06;4925907;28;98831;-73
2023/01/14 10:00:31;;;;;;;4.90;1.05;;;;;;;13.51;47.05;101016.34;4916795;28;97632;-72
2023/01/14 10:03:17;;;;;;;6.40;1.58;;;;;;;13.24;47.47;101010.41;4929083;28;97038;-72
2023/01/14 10:05:50;;;;;;;5.18;1.73;;;;;;;13.31;47.60;100992.44;4923943;28;99247;-72
2023/01/14 10:08:17;;;;;;;5.47;1.20;;;;;;;13.33;47.75;100995.88;4936824;28;99964;-73
2023/01/14 10:10:47;;;;;;;10.50;1.33;;;;;;;13.16;48.14;100989.50;4920420;28;99163;-72
2023/01/14 10:13:19;;;;;;;8.38;1.30;;;;;;;13.27;47.80;100988.16;4930713;28;97256;-72
2023/01/14 10:15:50;;;;;;;10.35;1.45;;;;;;;13.43;47.44;100979.50;4927696;28;99039;-71
2023/01/14 10:18:21;;;;;;;9.27;1.70;;;;;;;13.60;47.54;100983.19;4930980;28;99262;-73
2023/01/14 10:20:53;;;;;;;8.40;1.40;;;;;;;13.63;47.01;100975.09;4924461;28;96802;-73
2023/01/14 10:23:23;;;;;;;12.70;1.92;;;;;;;13.50;47.41;100964.16;4929868;28;97182;-72
2023/01/14 10:25:51;;;;;;;11.45;1.77;;;;;;;13.18;47.54;100962.06;4930380;28;100630;-74
2023/01/14 10:28:23;;;;;;;8.10;1.50;;;;;;;13.12;48.11;100949.88;4930821;28;98805;-72
2023/01/14 10:30:51;;;;;;;7.68;1.73;;;;;;;13.42;47.77;100958.31;4937125;28;97334;-72
2023/01/14 10:33:19;;;;;;;11.10;1.60;;;;;;;13.58;47.47;100951.41;4927702;28;97698;-73
2023/01/14 10:35:49;;;;;;;10.90;1.63;;;;;;;13.70;46.86;100952.66;4929740;28;102084;-73
2023/01/14 10:38:19;;;;;;;13.23;2.05;;;;;;;13.68;46.77;100938.56;4932242;28;100588;-74
2023/01/14 10:40:47;;;;;;;18.05;2.33;;;;;;;14.00;46.37;100937.97;4932342;28;99733;-72
2023/01/14 10:43:26;;;;;;;12.63;1.75;;;;;;;13.92;46.26;100943.63;4934669;28;97183;-73
2023/01/14 10:45:55;;;;;;;9.07;1.60;;;;;;;14.08;45.93;100933.16;4931043;28;98043;-72
2023/01/14 10:48:24;;;;;;;13.55;2.13;;;;;;;13.80;46.55;100928.25;4928616;28;98933;-72
2023/01/14 10:50:52;;;;;;;12.40;1.83;;;;;;;13.43;46.59;100930.84;4930893;28;97155;-71
2023/01/14 10:53:20;;;;;;;12.63;2.20;;;;;;;13.41;46.92;100924.75;4932043;28;97286;-72
2023/01/14 10:55:50;;;;;;;14.73;2.05;;;;;;;13.40;46.99;100923.00;4928766;28;100527;-73
2023/01/14 10:58:21;;;;;;;17.42;2.25;;;;;;;13.62;46.56;100915.81;4935688;28;98898;-71
2023/01/14 11:00:51;;;;;;;14.13;2.58;;;;;;;13.49;46.51;100914.66;4929211;28;96880;-72
2023/01/14 11:03:25;;;;;;;10.48;1.73;;;;;;;13.69;46.31;100921.72;4927269;28;97168;-72
2023/01/14 11:05:57;;;;;;;15.63;1.98;;;;;;;13.50;45.91;100908.41;4934191;28;99076;-74
2023/01/14 11:08:31;;;;;;;13.90;1.90;;;;;;;13.35;46.40;100909.97;4929743;28;98207;-71
2023/01/14 11:11:00;;;;;;;9.07;1.80;;;;;;;13.29;46.56;100898.75;4932735;28;96841;-71
2023/01/14 11:13:29;;;;;;;9.30;1.60;;;;;;;13.24;46.44;100891.00;4932120;28;96856;-72
2023/01/14 11:15:58;;;;;;;10.27;2.22;;;;;;;13.19;46.58;100893.00;4930146;28;99005;-72
2023/01/14 11:18:30;;;;;;;18.45;2.58;;;;;;;13.09;46.46;100892.50;4932008;28;99295;-73
2023/01/14 11:21:04;;;;;;;12.73;1.70;;;;;;;13.05;46.66;100882.09;4924562;28;96922;-71
2023/01/14 11:23:34;;;;;;;14.95;2.42;;;;;;;13.00;46.63;100870.78;4928330;28;96948;-73
2023/01/14 11:26:07;;;;;;;16.35;1.98;;;;;;;12.91;46.66;100868.56;4925907;28;98966;-72
2023/01/14 11:28:35;;;;;;;7.90;1.75;;;;;;;13.21;46.62;100871.69;4925993;28;102044;-72
2023/01/14 11:31:06;;;;;;;10.90;1.88;;;;;;;13.35;46.17;100861.31;4928258;28;96734;-71
2023/01/14 11:33:34;;;;;;;10.50;2.25;;;;;;;13.32;46.32;100857.03;4928560;28;97823;-72
2023/01/14 11:36:02;;;;;;;16.77;2.35;;;;;;;13.16;46.35;100846.22;4928032;28;99460;-71
2023/01/14 11:38:31;;;;;;;10.73;2.00;;;;;;;13.27;46.09;100842.22;4931373;28;101086;-72
2023/01/14 11:43:56;;;;;;;13.63;2.35;;;;;;;13.29;46.58;100837.72;4937219;28;96847;-73
2023/01/14 11:46:24;;;;;;;14.35;1.77;;;;;;;13.31;46.35;100835.88;4931234;28;99365;-73
2023/01/14 11:49:00;;;;;;;17.33;1.92;;;;;;;13.24;46.52;100834.41;4933096;28;99923;-72
2023/01/14 11:51:27;;;;;;;11.45;2.00;;;;;;;12.91;47.38;100834.09;4929405;28;96965;-72
2023/01/14 11:53:55;;;;;;;11.60;1.80;;;;;;;12.60;48.05;100811.53;4933357;28;97111;-72
2023/01/14 11:56:30;;;;;;;17.38;2.20;;;;;;;13.03;47.11;100812.31;4930333;28;97823;-70
2023/01/14 11:58:57;;;;;;;9.95;1.95;;;;;;;13.08;46.95;100797.91;4925080;28;99239;-71
2023/01/14 12:01:29;;;;;;;11.95;1.92;;;;;;;13.35;45.98;100792.31;4926843;28;98179;-71